Time;durP1;ratioP1;P1;durP2;ratioP2;P2;SDS_P1;SDS_P2;PMS_P1;PMS_P2;Temp;Humidity;BMP_temperature;BMP_pressure;BME280_temperature;BME280_humidity;BME280_pressure;Samples;Min_cycle;Max_cycle;Signal;HPM_P1;HPM_P2
2023/03/21 00:00:30;;;;;;;1999.90;999.90;;;8.90;99.90;;;;;;5036214;28;20480;-75
2023/03/21 00:02:55;;;;;;;1999.90;999.90;;;8.90;99.90;;;;;;5036063;28;20034;-75
2023/03/21 00:05:21;;;;;;;1999.90;999.90;;;8.90;99.90;;;;;;5034400;28;20040;-75
2023/03/21 00:07:46;;;;;;;1999.90;999.90;;;8.80;99.90;;;;;;5036125;28;20037;-75
2023/03/21 00:10:12;;;;;;;1999.90;999.90;;;8.90;99.90;;;;;;5035964;28;20476;-74
2023/03/21 00:12:38;;;;;;;1999.90;999.90;;;8.90;99.90;;;;;;5035797;28;20431;-75
2023/03/21 00:15:08;;;;;;;1999.90;999.90;;;8.90;99.90;;;;;;5035591;28;20042;-75
2023/03/21 00:17:34;;;;;;;1999.90;999.90;;;8.90;99.90;;;;;;5034286;28;20038;-75
2023/03/21 00:20:06;;;;;;;1999.90;999.90;;;8.90;99.90;;;;;;5035961;28;20030;-75
2023/03/21 00:22:35;;;;;;;1999.90;999.90;;;8.90;99.90;;;;;;5033883;28;20088;-75
2023/03/21 00:25:01;;;;;;;1999.90;999.90;;;8.90;99.90;;;;;;5035708;28;20471;-75
2023/03/21 00:27:27;;;;;;;1999.90;999.90;;;8.80;99.90;;;;;;5034384;28;20038;-75
2023/03/21 00:29:53;;;;;;;1999.90;999.90;;;8.80;99.90;;;;;;5035755;28;20034;-75
2023/03/21 00:32:20;;;;;;;1999.90;999.90;;;8.80;99.90;;;;;;5034924;28;20053;-75
2023/03/21 00:34:46;;;;;;;1999.90;999.90;;;8.80;99.90;;;;;;5035004;28;20430;-74
2023/03/21 00:37:15;;;;;;;1999.90;999.90;;;8.80;99.90;;;;;;5035415;28;20069;-75
2023/03/21 00:39:41;;;;;;;1999.90;999.90;;;8.80;99.90;;;;;;5035536;28;20030;-75
2023/03/21 00:42:08;;;;;;;1999.90;999.90;;;8.80;99.90;;;;;;5035374;28;20120;-75
2023/03/21 00:44:35;;;;;;;1999.90;999.90;;;8.80;99.90;;;;;;5035385;28;20113;-75
2023/03/21 00:47:04;;;;;;;1999.90;999.90;;;8.80;99.90;;;;;;5035244;28;20451;-75
2023/03/21 00:49:36;;;;;;;1999.90;999.90;;;8.80;99.90;;;;;;5035351;28;20037;-75
2023/03/21 00:52:05;;;;;;;1999.90;999.90;;;8.90;99.90;;;;;;5035366;28;20022;-75
2023/03/21 00:54:34;;;;;;;1999.90;999.90;;;8.90;99.90;;;;;;5033540;28;20033;-74
2023/03/21 00:57:01;;;;;;;1999.90;999.90;;;8.90;99.90;;;;;;5035214;28;20500;-75
2023/03/21 00:59:27;;;;;;;1999.90;999.90;;;8.90;99.90;;;;;;5035262;28;20042;-75
2023/03/21 01:01:53;;;;;;;1999.90;999.90;;;8.80;99.90;;;;;;5035161;28;20030;-75
2023/03/21 01:04:20;;;;;;;1999.90;999.90;;;8.80;99.90;;;;;;5033539;28;20038;-75
2023/03/21 01:06:46;;;;;;;1999.90;999.90;;;8.80;99.90;;;;;;5035016;28;20081;-75
2023/03/21 01:09:15;;;;;;;1999.90;999.90;;;8.80;99.90;;;;;;5035166;28;20416;-75
2023/03/21 01:11:41;;;;;;;1999.90;999.90;;;8.70;99.90;;;;;;5034628;28;20076;-75
2023/03/21 01:14:07;;;;;;;1999.90;999.90;;;8.70;99.90;;;;;;5034344;28;20112;-75
2023/03/21 01:16:33;;;;;;;1999.90;999.90;;;8.70;99.90;;;;;;5035173;28;20125;-75
2023/03/21 01:18:58;;;;;;;1999.90;999.90;;;8.70;99.90;;;;;;5034846;28;20037;-75
2023/03/21 01:21:24;;;;;;;1999.90;999.90;;;8.60;99.90;;;;;;5034750;28;20585;-75
2023/03/21 01:23:50;;;;;;;1999.90;999.90;;;8.70;99.90;;;;;;5033298;28;20447;-75
2023/03/21 01:26:16;;;;;;;1999.90;999.90;;;8.60;99.90;;;;;;5034515;28;20029;-75
2023/03/21 01:28:43;;;;;;;1999.90;999.90;;;8.60;99.90;;;;;;5034889;28;20462;-75
2023/03/21 01:31:11;;;;;;;1999.90;999.90;;;8.70;99.90;;;;;;5034176;28;20033;-75
2023/03/21 01:33:37;;;;;;;1999.90;999.90;;;8.60;99.90;;;;;;5033775;28;20124;-75
2023/03/21 01:36:03;;;;;;;1999.90;999.90;;;8.60;99.90;;;;;;5034598;28;20462;-75
2023/03/21 01:38:29;;;;;;;1999.90;999.90;;;8.60;99.90;;;;;;5034680;28;20070;-75
2023/03/21 01:40:55;;;;;;;1999.90;999.90;;;8.60;99.90;;;;;;5034733;28;20026;-75
2023/03/21 01:43:31;;;;;;;1999.90;999.90;;;8.60;99.90;;;;;;5032886;28;20045;-75
2023/03/21 01:46:09;;;;;;;1999.90;999.90;;;8.60;99.90;;;;;;5032628;28;20034;-75
2023/03/21 01:48:40;;;;;;;1999.90;999.90;;;8.50;99.90;;;;;;5034261;28;20121;-75
2023/03/21 01:51:10;;;;;;;1999.90;999.90;;;8.50;99.90;;;;;;5034655;28;20105;-75
2023/03/21 01:53:38;;;;;;;1999.90;999.90;;;8.50;99.90;;;;;;5034277;28;20040;-75
2023/03/21 01:56:14;;;;;;;1999.90;999.90;;;8.50;99.90;;;;;;5034162;28;20469;-75
2023/03/21 01:58:41;;;;;;;1999.90;999.90;;;8.50;99.90;;;;;;5034263;28;20045;-75
2023/03/21 02:01:08;;;;;;;1999.90;999.90;;;8.50;99.90;;;;;;5033982;28;20034;-75
2023/03/21 02:03:49;;;;;;;1999.90;999.90;;;8.50;99.90;;;;;;5034308;28;20030;-75
2023/03/21 02:06:30;;;;;;;1999.90;999.90;;;8.50;99.90;;;;;;5034448;28;20392;-75
2023/03/21 02:09:00;;;;;;;1999.90;999.90;;;8.50;99.90;;;;;;5034474;28;20452;-75
2023/03/21 02:11:26;;;;;;;1999.90;999.90;;;8.50;99.90;;;;;;5033167;28;20467;-75
2023/03/21 02:13:51;;;;;;;1999.90;999.90;;;8.50;99.90;;;;;;5034197;28;20038;-75
2023/03/21 02:16:36;;;;;;;1999.90;999.90;;;8.40;99.90;;;;;;5034316;28;20038;-75
2023/03/21 02:19:20;;;;;;;1999.90;999.90;;;8.40;99.90;;;;;;5032705;28;20042;-75
2023/03/21 02:22:11;;;;;;;1999.90;999.90;;;8.40;99.90;;;;;;5032439;28;20420;-75
2023/03/21 02:25:09;;;;;;;1999.90;999.90;;;8.40;99.90;;;;;;5034070;28;20034;-75
2023/03/21 02:27:45;;;;;;;1999.90;999.90;;;8.30;99.90;;;;;;5033932;28;20130;-75
2023/03/21 02:30:56;;;;;;;1999.90;999.90;;;8.30;99.90;;;;;;5032474;28;20033;-75
2023/03/21 02:33:52;;;;;;;1999.90;999.90;;;8.30;99.90;;;;;;5033553;28;20034;-75
2023/03/21 02:36:36;;;;;;;1999.90;999.90;;;8.40;99.90;;;;;;5032208;28;20045;-75
2023/03/21 02:39:13;;;;;;;1999.90;999.90;;;8.40;99.90;;;;;;5032564;28;20566;-75
2023/03/21 02:41:48;;;;;;;1999.90;999.90;;;8.40;99.90;;;;;;5032160;28;20061;-75
2023/03/21 02:44:43;;;;;;;1999.90;999.90;;;8.30;99.90;;;;;;5033662;28;20034;-75
2023/03/21 02:47:35;;;;;;;1999.90;999.90;;;8.30;99.90;;;;;;5033638;28;20092;-75
2023/03/21 02:50:04;;;;;;;1999.90;999.90;;;8.30;99.90;;;;;;5032449;28;20029;-75
2023/03/21 02:52:33;;;;;;;1999.90;999.90;;;8.30;99.90;;;;;;5031887;28;20455;-75
2023/03/21 02:55:03;;;;;;;1999.90;999.90;;;8.30;99.90;;;;;;5031949;28;20546;-75
2023/03/21 02:57:30;;;;;;;1999.90;999.90;;;8.30;99.90;;;;;;5032401;28;20026;-75
2023/03/21 02:59:56;;;;;;;1999.90;999.90;;;8.30;99.90;;;;;;5033545;28;20045;-75
2023/03/21 03:02:25;;;;;;;1999.90;999.90;;;8.30;99.90;;;;;;5036731;28;20032;-75
2023/03/21 03:04:51;;;;;;;1999.90;999.90;;;8.30;99.90;;;;;;5036491;28;20029;-75
2023/03/21 03:07:40;;;;;;;1999.90;999.90;;;8.30;99.90;;;;;;5035397;28;20480;-75
2023/03/21 03:10:06;;;;;;;1999.90;999.90;;;8.30;99.90;;;;;;5035409;28;20521;-75
2023/03/21 03:12:59;;;;;;;1999.90;999.90;;;8.30;99.90;;;;;;5036828;28;20033;-75
2023/03/21 03:15:37;;;;;;;1999.90;999.90;;;8.20;99.90;;;;;;5036766;28;20038;-75
2023/03/21 03:18:18;;;;;;;1999.90;999.90;;;8.30;99.90;;;;;;5036703;28;20092;-75
2023/03/21 03:20:49;;;;;;;1999.90;999.90;;;8.20;99.90;;;;;;5035240;28;20045;-75
2023/03/21 03:23:31;;;;;;;1999.90;999.90;;;8.20;99.90;;;;;;5036653;28;20514;-75
2023/03/21 03:26:14;;;;;;;1999.90;999.90;;;8.20;99.90;;;;;;5036380;28;20034;-75
2023/03/21 03:28:51;;;;;;;1999.90;999.90;;;8.20;99.90;;;;;;5036467;28;20057;-75
2023/03/21 03:31:24;;;;;;;1999.90;999.90;;;8.20;99.90;;;;;;5036268;28;20044;-75
2023/03/21 03:33:53;;;;;;;1999.90;999.90;;;8.20;99.90;;;;;;5036428;28;20038;-75
2023/03/21 03:36:22;;;;;;;1999.90;999.90;;;8.10;99.90;;;;;;5035102;28;20026;-75
2023/03/21 03:38:50;;;;;;;1999.90;999.90;;;8.10;99.90;;;;;;5036371;28;20033;-75
2023/03/21 03:41:26;;;;;;;1999.90;999.90;;;8.10;99.90;;;;;;5036265;28;20030;-75
2023/03/21 03:43:56;;;;;;;1999.90;999.90;;;8.10;99.90;;;;;;5034821;28;20578;-74
2023/03/21 03:46:33;;;;;;;1999.90;999.90;;;8.10;99.90;;;;;;5036239;28;20117;-75
2023/03/21 03:49:16;;;;;;;1999.90;999.90;;;8.10;99.90;;;;;;5036558;28;20045;-75
2023/03/21 03:52:03;;;;;;;1999.90;999.90;;;8.10;99.90;;;;;;5036201;28;20087;-75
2023/03/21 03:54:34;;;;;;;1999.90;999.90;;;8.00;99.90;;;;;;5035988;28;20522;-75
2023/03/21 03:57:00;;;;;;;1999.90;999.90;;;8.10;99.90;;;;;;5034752;28;20030;-75
2023/03/21 03:59:26;;;;;;;1999.90;999.90;;;8.10;99.90;;;;;;5036138;28;20030;-75
2023/03/21 04:01:51;;;;;;;1999.90;999.90;;;8.10;99.90;;;;;;5036109;28;20034;-75
2023/03/21 04:04:17;;;;;;;1999.90;999.90;;;8.10;99.90;;;;;;5035962;28;20120;-75
2023/03/21 04:06:50;;;;;;;1999.90;999.90;;;8.00;99.90;;;;;;5036198;28;20026;-75
2023/03/21 04:09:16;;;;;;;1999.90;999.90;;;8.00;99.90;;;;;;5035872;28;20033;-75
2023/03/21 04:11:42;;;;;;;1999.90;999.90;;;8.00;99.90;;;;;;5035483;28;20407;-75
2023/03/21 04:14:08;;;;;;;1999.90;999.90;;;8.00;99.90;;;;;;5035487;28;20042;-75
2023/03/21 04:16:33;;;;;;;1999.90;999.90;;;8.00;99.90;;;;;;5035953;28;20041;-75
2023/03/21 04:18:59;;;;;;;1999.90;999.90;;;8.00;99.90;;;;;;5034433;28;20038;-75
2023/03/21 04:21:26;;;;;;;1999.90;999.90;;;8.00;99.90;;;;;;5035092;28;20077;-75
2023/03/21 04:23:53;;;;;;;1999.90;999.90;;;8.00;99.90;;;;;;5035435;28;20029;-75
2023/03/21 04:26:20;;;;;;;1999.90;999.90;;;8.00;99.90;;;;;;5034310;28;20030;-75
2023/03/21 04:28:45;;;;;;;1999.90;999.90;;;8.00;99.90;;;;;;5035650;28;20113;-75
2023/03/21 04:31:12;;;;;;;1999.90;999.90;;;8.00;99.90;;;;;;5034969;28;20036;-75
2023/03/21 04:33:38;;;;;;;1999.90;999.90;;;8.00;99.90;;;;;;5035578;28;20103;-75
2023/03/21 04:36:08;;;;;;;1999.90;999.90;;;8.00;99.90;;;;;;5035208;28;20091;-75
2023/03/21 04:38:35;;;;;;;1999.90;999.90;;;8.10;99.90;;;;;;5035403;28;20496;-75
2023/03/21 04:41:01;;;;;;;1999.90;999.90;;;8.10;99.90;;;;;;5035132;28;20065;-75
2023/03/21 04:43:27;;;;;;;1999.90;999.90;;;8.10;99.90;;;;;;5035098;28;20080;-75
2023/03/21 04:45:54;;;;;;;1999.90;999.90;;;8.10;99.90;;;;;;5033524;28;20423;-75
2023/03/21 04:48:23;;;;;;;1999.90;999.90;;;8.10;99.90;;;;;;5035468;28;20488;-75
2023/03/21 04:50:50;;;;;;;1999.90;999.90;;;8.00;99.90;;;;;;5035288;28;20038;-75
2023/03/21 04:53:15;;;;;;;1999.90;999.90;;;8.00;99.90;;;;;;5034876;28;20030;-75
2023/03/21 04:55:41;;;;;;;1999.90;999.90;;;8.00;99.90;;;;;;5033541;28;20038;-75
2023/03/21 04:58:07;;;;;;;1999.90;999.90;;;8.00;99.90;;;;;;5035178;28;20022;-75
2023/03/21 05:00:36;;;;;;;1999.90;999.90;;;8.00;99.90;;;;;;5035080;28;20042;-75
2023/03/21 05:03:03;;;;;;;1999.90;999.90;;;8.00;99.90;;;;;;5033629;28;20529;-75
2023/03/21 05:05:30;;;;;;;1999.90;999.90;;;8.00;99.90;;;;;;5034860;28;20061;-75
2023/03/21 05:07:56;;;;;;;1999.90;999.90;;;8.00;99.90;;;;;;5033523;28;20514;-75
2023/03/21 05:10:21;;;;;;;1999.90;999.90;;;7.90;99.90;;;;;;5034883;28;20042;-75
2023/03/21 05:12:47;;;;;;;1999.90;999.90;;;8.00;99.90;;;;;;5034910;28;20389;-74
2023/03/21 05:15:13;;;;;;;1999.90;999.90;;;8.00;99.90;;;;;;5033115;28;20038;-75
2023/03/21 05:17:41;;;;;;;1999.90;999.90;;;8.00;99.90;;;;;;5034947;28;20408;-75
2023/03/21 05:20:10;;;;;;;1999.90;999.90;;;8.00;99.90;;;;;;5034783;28;20033;-75
2023/03/21 05:22:39;;;;;;;1999.90;999.90;;;8.00;99.90;;;;;;5033942;28;20815;-75
2023/03/21 05:25:07;;;;;;;1999.90;999.90;;;8.00;99.90;;;;;;5034584;28;20180;-75
2023/03/21 05:27:33;;;;;;;1999.90;999.90;;;8.00;99.90;;;;;;5034695;28;20030;-75
2023/03/21 05:30:06;;;;;;;1999.90;999.90;;;8.10;99.90;;;;;;5034486;28;20068;-75
2023/03/21 05:32:32;;;;;;;1999.90;999.90;;;8.10;99.90;;;;;;5034092;28;20470;-75
2023/03/21 05:34:57;;;;;;;1999.90;999.90;;;8.10;99.90;;;;;;5034337;28;20041;-75
2023/03/21 05:37:23;;;;;;;1999.90;999.90;;;8.10;99.90;;;;;;5034827;28;20432;-75
2023/03/21 05:39:49;;;;;;;1999.90;999.90;;;8.00;99.90;;;;;;5033110;28;20034;-75
2023/03/21 05:42:17;;;;;;;1999.90;999.90;;;8.20;99.90;;;;;;5034422;28;20396;-75
2023/03/21 05:44:43;;;;;;;1999.90;999.90;;;8.20;99.90;;;;;;5034404;28;20040;-75
2023/03/21 05:47:09;;;;;;;1999.90;999.90;;;8.20;99.90;;;;;;5034659;28;20044;-75
2023/03/21 05:49:34;;;;;;;1999.90;999.90;;;8.30;99.90;;;;;;5034541;28;20034;-75
2023/03/21 05:52:00;;;;;;;1999.90;999.90;;;8.30;99.90;;;;;;5034300;28;20061;-75
2023/03/21 05:54:25;;;;;;;1999.90;999.90;;;8.30;99.90;;;;;;5033926;28;20403;-75
2023/03/21 05:56:51;;;;;;;1999.90;999.90;;;8.40;99.90;;;;;;5034478;28;20038;-75
2023/03/21 05:59:16;;;;;;;1999.90;999.90;;;8.40;99.90;;;;;;5034578;28;20049;-75
2023/03/21 06:01:42;;;;;;;1999.90;999.90;;;8.50;99.90;;;;;;5033916;28;20045;-75
2023/03/21 06:04:07;;;;;;;1999.90;999.90;;;8.60;99.90;;;;;;5032602;28;20427;-75
2023/03/21 06:06:33;;;;;;;1999.90;999.90;;;8.70;99.90;;;;;;5034264;28;20471;-75
2023/03/21 06:08:59;;;;;;;1999.90;999.90;;;8.70;99.90;;;;;;5034373;28;20038;-75
2023/03/21 06:11:34;;;;;;;1999.90;999.90;;;8.80;99.90;;;;;;5034030;28;20030;-75
2023/03/21 06:14:00;;;;;;;1999.90;999.90;;;8.90;99.90;;;;;;5032724;28;20033;-75
2023/03/21 06:16:27;;;;;;;1999.90;999.90;;;9.00;99.90;;;;;;5034173;28;20026;-75
2023/03/21 06:18:53;;;;;;;1999.90;999.90;;;9.00;99.90;;;;;;5034034;28;20496;-75
2023/03/21 06:21:19;;;;;;;1999.90;999.90;;;9.20;99.90;;;;;;5033813;28;20041;-75
2023/03/21 06:23:45;;;;;;;1999.90;999.90;;;9.20;99.90;;;;;;5034037;28;20034;-75
2023/03/21 06:26:11;;;;;;;1999.90;999.90;;;9.20;99.90;;;;;;5032666;28;20137;-75
2023/03/21 06:28:37;;;;;;;1999.90;999.90;;;9.20;99.90;;;;;;5034153;28;20404;-75
2023/03/21 06:31:03;;;;;;;1999.90;999.90;;;9.20;99.90;;;;;;5033849;28;20026;-75
2023/03/21 06:33:29;;;;;;;1999.90;999.90;;;9.30;99.90;;;;;;5033215;28;20034;-74
2023/03/21 06:35:57;;;;;;;1999.90;999.90;;;9.40;99.90;;;;;;5037525;28;20046;-77
2023/03/21 06:38:23;;;;;;;1999.90;999.90;;;9.50;99.90;;;;;;5037296;28;20535;-75
2023/03/21 06:40:49;;;;;;;1999.90;999.90;;;9.60;99.90;;;;;;5037267;28;20046;-75
2023/03/21 06:43:15;;;;;;;1999.90;999.90;;;9.70;99.90;;;;;;5035633;28;20036;-75
2023/03/21 06:45:41;;;;;;;1999.90;999.90;;;9.80;99.90;;;;;;5037134;28;20054;-75
2023/03/21 06:48:07;;;;;;;1999.90;999.90;;;9.90;99.90;;;;;;5037456;28;20058;-75
2023/03/21 06:50:32;;;;;;;1999.90;999.90;;;10.00;99.90;;;;;;5037336;28;20076;-75
2023/03/21 06:52:58;;;;;;;1999.90;999.90;;;10.10;99.90;;;;;;5037156;28;20124;-75
2023/03/21 06:55:25;;;;;;;1999.90;999.90;;;10.10;99.90;;;;;;5037083;28;20045;-75
2023/03/21 06:58:00;;;;;;;1999.90;999.90;;;10.10;99.90;;;;;;5035660;28;20034;-75
2023/03/21 07:00:26;;;;;;;1999.90;999.90;;;10.00;99.90;;;;;;5036889;28;20030;-75
2023/03/21 07:02:52;;;;;;;1999.90;999.90;;;10.00;99.90;;;;;;5035422;28;20415;-75
2023/03/21 07:05:18;;;;;;;1999.90;999.90;;;10.00;99.90;;;;;;5036567;28;20486;-75
2023/03/21 07:07:44;;;;;;;1999.90;999.90;;;10.00;99.90;;;;;;5037064;28;20038;-75
2023/03/21 07:10:10;;;;;;;1999.90;999.90;;;10.00;99.90;;;;;;5036913;28;20038;-75
2023/03/21 07:12:35;;;;;;;1999.90;999.90;;;9.90;99.90;;;;;;5034980;28;20831;-75
2023/03/21 07:15:03;;;;;;;1999.90;999.90;;;9.90;99.90;;;;;;5035207;28;20042;-75
2023/03/21 07:17:29;;;;;;;1999.90;999.90;;;9.90;99.90;;;;;;5036988;28;20136;-75
2023/03/21 07:19:54;;;;;;;1999.90;999.90;;;9.90;99.90;;;;;;5035240;28;20073;-75
2023/03/21 07:22:20;;;;;;;1999.90;999.90;;;9.90;99.90;;;;;;5036224;28;20469;-75
2023/03/21 07:24:49;;;;;;;1999.90;999.90;;;9.90;99.90;;;;;;5036764;28;20045;-75
2023/03/21 07:27:16;;;;;;;1999.90;999.90;;;10.00;99.90;;;;;;5036946;28;20101;-75
2023/03/21 07:29:43;;;;;;;1999.90;999.90;;;10.00;99.90;;;;;;5037469;28;20034;-75
2023/03/21 07:32:09;;;;;;;1999.90;999.90;;;10.10;99.90;;;;;;5036235;28;20133;-76
2023/03/21 07:34:36;;;;;;;1999.90;999.90;;;10.10;99.90;;;;;;5035408;28;20136;-75
2023/03/21 07:37:01;;;;;;;1999.90;999.90;;;10.20;99.90;;;;;;5036697;28;20065;-75
2023/03/21 07:39:28;;;;;;;1999.90;999.90;;;10.30;99.90;;;;;;5036282;28;20491;-76
2023/03/21 07:41:54;;;;;;;1999.90;999.90;;;10.30;99.90;;;;;;5035099;28;20851;-76
2023/03/21 07:44:20;;;;;;;1999.90;999.90;;;10.40;99.90;;;;;;5036420;28;20030;-76
2023/03/21 07:46:46;;;;;;;1999.90;999.90;;;10.50;99.90;;;;;;5034312;28;20506;-76
2023/03/21 07:49:12;;;;;;;1999.90;999.90;;;10.50;99.90;;;;;;5034916;28;20112;-75
2023/03/21 07:51:37;;;;;;;1999.90;999.90;;;10.60;99.90;;;;;;5036373;28;20030;-76
2023/03/21 07:54:03;;;;;;;1999.90;999.90;;;10.70;99.90;;;;;;5036114;28;20038;-76
2023/03/21 07:56:29;;;;;;;1999.90;999.90;;;10.80;99.90;;;;;;5036508;28;20037;-76
2023/03/21 07:58:54;;;;;;;1999.90;999.90;;;10.90;99.90;;;;;;5036329;28;20811;-76
2023/03/21 08:01:20;;;;;;;1999.90;999.90;;;11.00;99.90;;;;;;5036071;28;20044;-76
2023/03/21 08:03:46;;;;;;;1999.90;999.90;;;11.10;99.90;;;;;;5036139;28;20455;-76
2023/03/21 08:06:12;;;;;;;1999.90;999.90;;;11.20;99.90;;;;;;5036149;28;20041;-76
2023/03/21 08:08:38;;;;;;;1999.90;999.90;;;11.30;99.90;;;;;;5035915;28;20038;-76
2023/03/21 08:11:04;;;;;;;1999.90;999.90;;;11.30;99.90;;;;;;5035852;28;20041;-75
2023/03/21 08:13:30;;;;;;;1999.90;999.90;;;11.40;99.90;;;;;;5034595;28;20046;-76
2023/03/21 08:15:56;;;;;;;1999.90;999.90;;;11.40;99.90;;;;;;5035708;28;20041;-76
2023/03/21 08:18:21;;;;;;;1999.90;999.90;;;11.50;99.90;;;;;;5033976;28;20036;-76
2023/03/21 08:20:55;;;;;;;1999.90;999.90;;;11.60;99.90;;;;;;5036009;28;20056;-76
2023/03/21 08:23:21;;;;;;;1999.90;999.90;;;11.70;99.90;;;;;;5034336;28;20030;-76
2023/03/21 08:25:51;;;;;;;1999.90;999.90;;;11.80;99.90;;;;;;5035653;28;20088;-76
2023/03/21 08:28:17;;;;;;;1999.90;999.90;;;11.80;99.90;;;;;;5035932;28;20029;-76
2023/03/21 08:30:42;;;;;;;1999.90;999.90;;;11.90;99.90;;;;;;5035770;28;20034;-76
2023/03/21 08:33:08;;;;;;;1999.90;999.90;;;12.10;99.90;;;;;;5035310;28;20034;-76
2023/03/21 08:35:36;;;;;;;1999.90;999.90;;;12.20;99.90;;;;;;5035459;28;20104;-79
2023/03/21 08:38:03;;;;;;;1999.90;999.90;;;12.40;99.90;;;;;;5035568;28;20038;-76
2023/03/21 08:40:28;;;;;;;1999.90;999.90;;;12.50;99.90;;;;;;5034206;28;20034;-76
2023/03/21 08:42:54;;;;;;;1999.90;999.90;;;12.50;99.90;;;;;;5035280;28;20447;-76
2023/03/21 08:45:19;;;;;;;1999.90;999.90;;;12.70;99.90;;;;;;5035390;28;20042;-77
2023/03/21 08:47:45;;;;;;;1999.90;999.90;;;12.80;99.90;;;;;;5035414;28;20026;-76
2023/03/21 08:50:14;;;;;;;1999.90;999.90;;;12.80;99.90;;;;;;5035277;28;20030;-77
2023/03/21 08:52:39;;;;;;;1999.90;999.90;;;12.90;99.90;;;;;;5033755;28;20456;-77
2023/03/21 08:55:06;;;;;;;1999.90;999.90;;;13.10;99.90;;;;;;5035163;28;20177;-77
2023/03/21 08:57:31;;;;;;;1999.90;999.90;;;13.30;99.90;;;;;;5034293;28;20389;-77
2023/03/21 08:59:57;;;;;;;1999.90;999.90;;;13.20;98.90;;;;;;5035416;28;20034;-77
2023/03/21 09:02:22;;;;;;;1999.90;999.90;;;13.10;98.60;;;;;;5033636;28;20033;-77
2023/03/21 09:04:48;;;;;;;1999.90;999.90;;;13.30;98.50;;;;;;5034913;28;20044;-77
2023/03/21 09:07:16;;;;;;;1999.90;999.90;;;13.40;97.80;;;;;;5035327;28;20100;-77
2023/03/21 09:09:41;;;;;;;1999.90;999.90;;;13.50;97.20;;;;;;5033735;28;20088;-77
2023/03/21 09:12:07;;;;;;;1999.90;999.90;;;13.60;98.20;;;;;;5034984;28;20080;-77
2023/03/21 09:14:34;;;;;;;1999.90;999.90;;;13.80;99.40;;;;;;5034573;28;20050;-77
2023/03/21 09:16:59;;;;;;;1999.90;999.90;;;13.90;98.40;;;;;;5035068;28;20037;-77
2023/03/21 09:19:26;;;;;;;1999.90;999.90;;;14.00;98.20;;;;;;5035047;28;20061;-77
2023/03/21 09:21:52;;;;;;;1999.90;999.90;;;14.20;98.60;;;;;;5033449;28;20089;-77
2023/03/21 09:24:19;;;;;;;1999.90;999.90;;;14.20;98.70;;;;;;5034899;28;20033;-77
2023/03/21 09:26:45;;;;;;;1999.90;999.90;;;14.30;97.30;;;;;;5035051;28;20037;-77
2023/03/21 09:29:11;;;;;;;1999.90;999.90;;;14.30;96.30;;;;;;5034976;28;20034;-77
2023/03/21 09:31:38;;;;;;;1999.90;999.90;;;14.30;95.60;;;;;;5034563;28;20045;-77
2023/03/21 09:34:04;;;;;;;1999.90;999.90;;;14.40;96.90;;;;;;5033015;28;20041;-77
2023/03/21 09:36:33;;;;;;;1999.90;999.90;;;14.70;95.70;;;;;;5034614;28;20041;-77
2023/03/21 09:38:59;;;;;;;1999.90;999.90;;;14.80;94.50;;;;;;5034710;28;20037;-77
2023/03/21 09:42:01;;;;;;;1999.90;999.90;;;15.10;94.40;;;;;;5034613;28;20030;-77
2023/03/21 09:45:04;;;;;;;1999.90;999.90;;;15.20;93.70;;;;;;5034326;28;20038;-77
2023/03/21 09:47:48;;;;;;;1999.90;999.90;;;15.40;93.10;;;;;;5024535;28;20129;-77
2023/03/21 09:50:19;;;;;;;1999.90;999.90;;;15.40;93.60;;;;;;5033085;28;20038;-77
2023/03/21 09:52:55;;;;;;;1999.90;999.90;;;15.60;94.10;;;;;;5034507;28;20080;-77
2023/03/21 09:55:25;;;;;;;1999.90;999.90;;;15.80;92.40;;;;;;5032784;28;20100;-77
2023/03/21 09:58:39;;;;;;;1999.90;999.90;;;16.10;93.20;;;;;;5033095;28;20591;-77
2023/03/21 10:01:26;;;;;;;1999.90;999.90;;;16.10;91.60;;;;;;5028688;28;20499;-77
2023/03/21 10:03:53;;;;;;;1999.90;999.90;;;16.20;91.90;;;;;;5034494;28;20026;-77
2023/03/21 10:06:20;;;;;;;1999.90;999.90;;;16.20;91.10;;;;;;5034460;28;20129;-77
2023/03/21 10:08:47;;;;;;;1999.90;999.90;;;16.40;90.90;;;;;;5035548;28;20531;-77
2023/03/21 10:11:18;;;;;;;1999.90;999.90;;;16.50;90.10;;;;;;5037880;28;20038;-77
2023/03/21 10:13:54;;;;;;;1999.90;999.90;;;16.30;91.10;;;;;;5037923;28;20030;-77
2023/03/21 10:16:29;;;;;;;1999.90;999.90;;;16.50;90.60;;;;;;5037725;28;20481;-77
2023/03/21 10:18:56;;;;;;;1999.90;999.90;;;16.50;90.20;;;;;;5036284;28;20038;-77
2023/03/21 10:21:25;;;;;;;1999.90;999.90;;;16.60;89.90;;;;;;5037636;28;20044;-77
2023/03/21 10:23:52;;;;;;;1999.90;999.90;;;16.90;88.20;;;;;;5036138;28;20519;-77
2023/03/21 10:26:21;;;;;;;1999.90;999.90;;;16.90;88.00;;;;;;5037690;28;20475;-77
2023/03/21 10:28:47;;;;;;;1999.90;999.90;;;16.90;88.90;;;;;;5037533;28;20036;-77
2023/03/21 10:31:16;;;;;;;1999.90;999.90;;;17.00;89.00;;;;;;5036610;28;20048;-75
2023/03/21 10:33:45;;;;;;;1999.90;999.90;;;16.80;89.70;;;;;;5037639;28;20145;-75
2023/03/21 10:36:16;;;;;;;1999.90;999.90;;;17.00;91.30;;;;;;5037653;28;20046;-75
2023/03/21 10:38:51;;;;;;;1999.90;999.90;;;17.30;88.50;;;;;;5037660;28;20509;-76
2023/03/21 10:41:17;;;;;;;1999.90;999.90;;;17.40;89.80;;;;;;5037286;28;20045;-76
2023/03/21 10:43:44;;;;;;;1999.90;999.90;;;17.70;87.80;;;;;;5035951;28;20030;-76
2023/03/21 10:46:16;;;;;;;1999.90;999.90;;;18.00;85.30;;;;;;5035777;28;20587;-76
2023/03/21 10:48:45;;;;;;;1999.90;999.90;;;17.90;85.90;;;;;;5037517;28;20512;-76
2023/03/21 10:51:17;;;;;;;1999.90;999.90;;;18.10;88.20;;;;;;5036936;28;20504;-76
2023/03/21 10:53:50;;;;;;;1999.90;999.90;;;18.40;85.70;;;;;;5037314;28;20026;-76
2023/03/21 10:56:16;;;;;;;1999.90;999.90;;;18.10;86.00;;;;;;5037294;28;20049;-76
2023/03/21 10:58:46;;;;;;;1999.90;999.90;;;18.00;84.90;;;;;;5037411;28;20052;-76
2023/03/21 11:01:24;;;;;;;1999.90;999.90;;;17.80;84.40;;;;;;5037744;28;20038;-76
2023/03/21 11:04:04;;;;;;;1999.90;999.90;;;17.80;87.70;;;;;;5038166;28;20026;-76
2023/03/21 11:06:32;;;;;;;1999.90;999.90;;;17.80;87.40;;;;;;5037756;28;20038;-75
2023/03/21 11:09:07;;;;;;;1999.90;999.90;;;17.90;83.10;;;;;;5037185;28;20546;-76
2023/03/21 11:11:59;;;;;;;1999.90;999.90;;;18.00;81.90;;;;;;5037199;28;20092;-76
2023/03/21 11:14:44;;;;;;;1999.90;999.90;;;18.00;84.90;;;;;;5036838;28;20038;-76
2023/03/21 11:17:20;;;;;;;1999.90;999.90;;;17.60;85.30;;;;;;5037064;28;20136;-76
2023/03/21 11:20:08;;;;;;;1999.90;999.90;;;17.80;83.30;;;;;;5036297;28;20511;-75
2023/03/21 11:22:42;;;;;;;1999.90;999.90;;;18.00;83.40;;;;;;5036808;28;20041;-75
2023/03/21 11:25:18;;;;;;;1999.90;999.90;;;17.70;83.20;;;;;;5036609;28;20045;-75
2023/03/21 11:27:55;;;;;;;1999.90;999.90;;;17.80;83.30;;;;;;5037024;28;20042;-76
2023/03/21 11:30:23;;;;;;;1999.90;999.90;;;17.80;84.90;;;;;;5036811;28;20034;-76
2023/03/21 11:32:57;;;;;;;1999.90;999.90;;;17.90;83.50;;;;;;5036034;28;20518;-76
2023/03/21 11:35:35;;;;;;;1999.90;999.90;;;17.90;82.70;;;;;;5036409;28;20454;-76
2023/03/21 11:38:01;;;;;;;1999.90;999.90;;;17.80;82.20;;;;;;5036653;28;20034;-76
2023/03/21 11:40:29;;;;;;;1999.90;999.90;;;18.00;83.00;;;;;;5035082;28;20407;-76
2023/03/21 11:42:56;;;;;;;1999.90;999.90;;;18.20;84.20;;;;;;5036185;28;20475;-76
2023/03/21 11:45:26;;;;;;;1999.90;999.90;;;18.10;83.00;;;;;;5036172;28;20064;-76
2023/03/21 11:47:55;;;;;;;1999.90;999.90;;;18.20;83.30;;;;;;5034884;28;20030;-76
2023/03/21 11:50:31;;;;;;;1999.90;999.90;;;18.20;83.10;;;;;;5036260;28;20038;-76
2023/03/21 11:53:20;;;;;;;1999.90;999.90;;;18.20;83.70;;;;;;5036366;28;20125;-76
2023/03/21 11:56:12;;;;;;;1999.90;999.90;;;18.30;83.50;;;;;;5036200;28;20044;-76
2023/03/21 11:59:04;;;;;;;1999.90;999.90;;;18.20;83.90;;;;;;5036047;28;20034;-76
2023/03/21 12:01:55;;;;;;;1999.90;999.90;;;18.10;83.60;;;;;;5035343;28;20049;-75
2023/03/21 12:04:40;;;;;;;1999.90;999.90;;;18.00;85.10;;;;;;5036105;28;20476;-76
2023/03/21 12:07:09;;;;;;;1999.90;999.90;;;18.20;85.40;;;;;;5034747;28;20121;-76
2023/03/21 12:09:45;;;;;;;1999.90;999.90;;;17.90;84.70;;;;;;5034903;28;20535;-76
2023/03/21 12:12:43;;;;;;;1999.90;999.90;;;17.60;87.10;;;;;;5035491;28;20466;-76
2023/03/21 12:15:25;;;;;;;1999.90;999.90;;;17.20;86.30;;;;;;5035629;28;20042;-76
2023/03/21 12:18:31;;;;;;;1999.90;999.90;;;17.30;86.20;;;;;;5036014;28;20045;-76